sensor_id;sensor_type;location;lat;lon;timestamp;temperature;humidity
15231;DHT22;32569;51.762;8.564;2023-07-31T00:01:45;16.70;99.90
15231;DHT22;32569;51.762;8.564;2023-07-31T00:04:12;16.70;99.90
15231;DHT22;32569;51.762;8.564;2023-07-31T00:06:38;16.70;99.90
15231;DHT22;32569;51.762;8.564;2023-07-31T00:09:05;16.70;99.90
15231;DHT22;32569;51.762;8.564;2023-07-31T00:11:32;16.70;99.90
15231;DHT22;32569;51.762;8.564;2023-07-31T00:13:59;16.60;99.90
15231;DHT22;32569;51.762;8.564;2023-07-31T00:16:27;16.60;99.90
15231;DHT22;32569;51.762;8.564;2023-07-31T00:18:54;16.70;99.90
15231;DHT22;32569;51.762;8.564;2023-07-31T00:21:21;16.70;99.90
15231;DHT22;32569;51.762;8.564;2023-07-31T00:23:47;16.60;99.90
15231;DHT22;32569;51.762;8.564;2023-07-31T00:26:14;16.70;99.90
15231;DHT22;32569;51.762;8.564;2023-07-31T00:28:41;16.70;99.90
15231;DHT22;32569;51.762;8.564;2023-07-31T00:31:10;16.70;99.90
15231;DHT22;32569;51.762;8.564;2023-07-31T00:33:38;16.70;99.90
15231;DHT22;32569;51.762;8.564;2023-07-31T00:36:05;16.60;99.90
15231;DHT22;32569;51.762;8.564;2023-07-31T00:38:31;16.60;99.90
15231;DHT22;32569;51.762;8.564;2023-07-31T00:40:58;16.60;99.90
15231;DHT22;32569;51.762;8.564;2023-07-31T00:43:25;16.60;99.90
15231;DHT22;32569;51.762;8.564;2023-07-31T00:45:52;16.60;99.90
15231;DHT22;32569;51.762;8.564;2023-07-31T00:48:18;16.60;99.90
15231;DHT22;32569;51.762;8.564;2023-07-31T00:50:50;16.70;99.90
15231;DHT22;32569;51.762;8.564;2023-07-31T00:53:17;16.60;99.90
15231;DHT22;32569;51.762;8.564;2023-07-31T00:55:44;16.60;99.90
15231;DHT22;32569;51.762;8.564;2023-07-31T00:58:11;16.60;99.90
15231;DHT22;32569;51.762;8.564;2023-07-31T01:00:38;16.60;99.90
15231;DHT22;32569;51.762;8.564;2023-07-31T01:03:04;16.60;99.90
15231;DHT22;32569;51.762;8.564;2023-07-31T01:05:39;16.60;99.90
15231;DHT22;32569;51.762;8.564;2023-07-31T01:08:15;16.60;99.90
15231;DHT22;32569;51.762;8.564;2023-07-31T01:10:49;16.60;99.90
15231;DHT22;32569;51.762;8.564;2023-07-31T01:13:18;16.50;99.90
15231;DHT22;32569;51.762;8.564;2023-07-31T01:15:45;16.60;99.90
15231;DHT22;32569;51.762;8.564;2023-07-31T01:18:12;16.60;99.90
15231;DHT22;32569;51.762;8.564;2023-07-31T01:20:42;16.50;99.90
15231;DHT22;32569;51.762;8.564;2023-07-31T01:23:27;16.50;99.90
15231;DHT22;32569;51.762;8.564;2023-07-31T01:26:03;16.40;99.90
15231;DHT22;32569;51.762;8.564;2023-07-31T01:28:37;16.30;99.90
15231;DHT22;32569;51.762;8.564;2023-07-31T01:31:12;16.30;99.90
15231;DHT22;32569;51.762;8.564;2023-07-31T01:33:44;16.20;99.90
15231;DHT22;32569;51.762;8.564;2023-07-31T01:36:11;16.20;99.90
15231;DHT22;32569;51.762;8.564;2023-07-31T01:38:38;16.10;99.90
15231;DHT22;32569;51.762;8.564;2023-07-31T01:41:06;15.90;99.90
15231;DHT22;32569;51.762;8.564;2023-07-31T01:43:33;16.00;99.90
15231;DHT22;32569;51.762;8.564;2023-07-31T01:46:01;16.00;99.90
15231;DHT22;32569;51.762;8.564;2023-07-31T01:48:29;15.90;99.90
15231;DHT22;32569;51.762;8.564;2023-07-31T01:51:01;15.90;99.90
15231;DHT22;32569;51.762;8.564;2023-07-31T01:53:28;15.90;99.90
15231;DHT22;32569;51.762;8.564;2023-07-31T01:55:54;15.80;99.90
15231;DHT22;32569;51.762;8.564;2023-07-31T01:58:23;15.90;99.90
15231;DHT22;32569;51.762;8.564;2023-07-31T02:00:52;15.70;99.90
15231;DHT22;32569;51.762;8.564;2023-07-31T02:03:19;15.70;99.90
15231;DHT22;32569;51.762;8.564;2023-07-31T02:05:46;15.70;99.90
15231;DHT22;32569;51.762;8.564;2023-07-31T02:08:13;15.60;99.90
15231;DHT22;32569;51.762;8.564;2023-07-31T02:10:40;15.70;99.90
15231;DHT22;32569;51.762;8.564;2023-07-31T02:13:07;15.60;99.90
15231;DHT22;32569;51.762;8.564;2023-07-31T02:15:36;15.60;99.90
15231;DHT22;32569;51.762;8.564;2023-07-31T02:18:02;15.50;99.90
15231;DHT22;32569;51.762;8.564;2023-07-31T02:20:29;15.50;99.90
15231;DHT22;32569;51.762;8.564;2023-07-31T02:22:56;15.60;99.90
15231;DHT22;32569;51.762;8.564;2023-07-31T02:25:22;15.60;99.90
15231;DHT22;32569;51.762;8.564;2023-07-31T02:27:52;15.70;99.90
15231;DHT22;32569;51.762;8.564;2023-07-31T02:30:19;15.60;99.90
15231;DHT22;32569;51.762;8.564;2023-07-31T02:32:47;15.70;99.90
15231;DHT22;32569;51.762;8.564;2023-07-31T02:35:13;15.70;99.90
15231;DHT22;32569;51.762;8.564;2023-07-31T02:37:41;15.70;99.90
15231;DHT22;32569;51.762;8.564;2023-07-31T02:40:08;15.80;99.90
15231;DHT22;32569;51.762;8.564;2023-07-31T02:42:35;15.80;99.90
15231;DHT22;32569;51.762;8.564;2023-07-31T02:45:05;15.80;99.90
15231;DHT22;32569;51.762;8.564;2023-07-31T02:47:32;15.80;99.90
15231;DHT22;32569;51.762;8.564;2023-07-31T02:50:00;15.80;99.90
15231;DHT22;32569;51.762;8.564;2023-07-31T02:52:27;15.80;99.90
15231;DHT22;32569;51.762;8.564;2023-07-31T02:54:54;15.90;99.90
15231;DHT22;32569;51.762;8.564;2023-07-31T02:57:21;15.90;99.90
15231;DHT22;32569;51.762;8.564;2023-07-31T02:59:47;16.00;99.90
15231;DHT22;32569;51.762;8.564;2023-07-31T03:02:14;16.00;99.90
15231;DHT22;32569;51.762;8.564;2023-07-31T03:04:41;16.10;99.90
15231;DHT22;32569;51.762;8.564;2023-07-31T03:07:09;16.10;99.90
15231;DHT22;32569;51.762;8.564;2023-07-31T03:09:35;16.20;99.90
15231;DHT22;32569;51.762;8.564;2023-07-31T03:12:03;16.20;99.90
15231;DHT22;32569;51.762;8.564;2023-07-31T03:14:29;16.20;99.90
15231;DHT22;32569;51.762;8.564;2023-07-31T03:16:56;16.20;99.90
15231;DHT22;32569;51.762;8.564;2023-07-31T03:19:23;16.20;99.90
15231;DHT22;32569;51.762;8.564;2023-07-31T03:21:50;16.20;99.90
15231;DHT22;32569;51.762;8.564;2023-07-31T03:24:18;16.30;99.90
15231;DHT22;32569;51.762;8.564;2023-07-31T03:26:44;16.30;99.90
15231;DHT22;32569;51.762;8.564;2023-07-31T03:29:11;16.30;99.90
15231;DHT22;32569;51.762;8.564;2023-07-31T03:31:38;16.30;99.90
15231;DHT22;32569;51.762;8.564;2023-07-31T03:34:06;16.30;99.90
15231;DHT22;32569;51.762;8.564;2023-07-31T03:36:33;16.30;99.90
15231;DHT22;32569;51.762;8.564;2023-07-31T03:39:00;16.30;99.90
15231;DHT22;32569;51.762;8.564;2023-07-31T03:41:28;16.30;99.90
15231;DHT22;32569;51.762;8.564;2023-07-31T03:43:55;16.30;99.90
15231;DHT22;32569;51.762;8.564;2023-07-31T03:46:22;16.30;99.90
15231;DHT22;32569;51.762;8.564;2023-07-31T03:48:49;16.30;99.90
15231;DHT22;32569;51.762;8.564;2023-07-31T03:51:16;16.30;99.90
15231;DHT22;32569;51.762;8.564;2023-07-31T03:53:43;16.20;99.90
15231;DHT22;32569;51.762;8.564;2023-07-31T03:56:10;16.30;99.90
15231;DHT22;32569;51.762;8.564;2023-07-31T03:58:38;16.30;99.90
15231;DHT22;32569;51.762;8.564;2023-07-31T04:01:05;16.30;99.90
15231;DHT22;32569;51.762;8.564;2023-07-31T04:03:32;16.20;99.90
15231;DHT22;32569;51.762;8.564;2023-07-31T04:05:59;16.20;99.90
15231;DHT22;32569;51.762;8.564;2023-07-31T04:08:25;16.30;99.90
15231;DHT22;32569;51.762;8.564;2023-07-31T04:10:55;16.30;99.90
15231;DHT22;32569;51.762;8.564;2023-07-31T04:13:22;16.30;99.90
15231;DHT22;32569;51.762;8.564;2023-07-31T04:15:50;16.30;99.90
15231;DHT22;32569;51.762;8.564;2023-07-31T04:18:17;16.40;99.90
15231;DHT22;32569;51.762;8.564;2023-07-31T04:20:44;16.30;99.90
15231;DHT22;32569;51.762;8.564;2023-07-31T04:23:10;16.30;99.90
15231;DHT22;32569;51.762;8.564;2023-07-31T04:25:37;16.30;99.90
15231;DHT22;32569;51.762;8.564;2023-07-31T04:28:04;16.30;99.90
15231;DHT22;32569;51.762;8.564;2023-07-31T04:30:31;16.30;99.90
15231;DHT22;32569;51.762;8.564;2023-07-31T04:32:59;16.30;99.90
15231;DHT22;32569;51.762;8.564;2023-07-31T04:35:25;16.20;99.90
15231;DHT22;32569;51.762;8.564;2023-07-31T04:37:52;16.30;99.90
15231;DHT22;32569;51.762;8.564;2023-07-31T04:40:19;16.30;99.90
15231;DHT22;32569;51.762;8.564;2023-07-31T04:42:45;16.30;99.90
15231;DHT22;32569;51.762;8.564;2023-07-31T04:45:12;16.30;99.90
15231;DHT22;32569;51.762;8.564;2023-07-31T04:47:39;16.30;99.90
15231;DHT22;32569;51.762;8.564;2023-07-31T04:50:08;16.40;99.90
15231;DHT22;32569;51.762;8.564;2023-07-31T04:52:35;16.40;99.90
15231;DHT22;32569;51.762;8.564;2023-07-31T04:55:01;16.40;99.90
15231;DHT22;32569;51.762;8.564;2023-07-31T04:57:28;16.40;99.90
15231;DHT22;32569;51.762;8.564;2023-07-31T04:59:58;16.40;99.90
15231;DHT22;32569;51.762;8.564;2023-07-31T05:02:25;16.40;99.90
15231;DHT22;32569;51.762;8.564;2023-07-31T05:04:51;16.40;99.90
15231;DHT22;32569;51.762;8.564;2023-07-31T05:07:22;16.40;99.90
15231;DHT22;32569;51.762;8.564;2023-07-31T05:09:49;16.50;99.90
15231;DHT22;32569;51.762;8.564;2023-07-31T05:12:16;16.50;99.90
15231;DHT22;32569;51.762;8.564;2023-07-31T05:14:42;16.50;99.90
15231;DHT22;32569;51.762;8.564;2023-07-31T05:17:09;16.50;99.90
15231;DHT22;32569;51.762;8.564;2023-07-31T05:19:39;16.60;99.90
15231;DHT22;32569;51.762;8.564;2023-07-31T05:22:06;16.60;99.90
15231;DHT22;32569;51.762;8.564;2023-07-31T05:24:34;16.60;99.90
15231;DHT22;32569;51.762;8.564;2023-07-31T05:27:00;16.60;99.90
15231;DHT22;32569;51.762;8.564;2023-07-31T05:29:27;16.60;99.90
15231;DHT22;32569;51.762;8.564;2023-07-31T05:31:54;16.70;99.90
15231;DHT22;32569;51.762;8.564;2023-07-31T05:34:20;16.70;99.90
15231;DHT22;32569;51.762;8.564;2023-07-31T05:36:50;16.70;99.90
15231;DHT22;32569;51.762;8.564;2023-07-31T05:39:17;16.70;99.90
15231;DHT22;32569;51.762;8.564;2023-07-31T05:41:47;16.70;99.90
15231;DHT22;32569;51.762;8.564;2023-07-31T05:44:19;16.70;99.90
15231;DHT22;32569;51.762;8.564;2023-07-31T05:46:46;16.80;99.90
15231;DHT22;32569;51.762;8.564;2023-07-31T05:49:13;16.80;99.90
15231;DHT22;32569;51.762;8.564;2023-07-31T05:51:40;16.70;99.90
15231;DHT22;32569;51.762;8.564;2023-07-31T05:54:06;16.80;99.90
15231;DHT22;32569;51.762;8.564;2023-07-31T05:56:33;16.80;99.90
15231;DHT22;32569;51.762;8.564;2023-07-31T05:59:01;16.80;99.90
15231;DHT22;32569;51.762;8.564;2023-07-31T06:01:28;16.90;99.90
15231;DHT22;32569;51.762;8.564;2023-07-31T06:03:55;16.80;99.90
15231;DHT22;32569;51.762;8.564;2023-07-31T06:06:21;16.90;99.90
15231;DHT22;32569;51.762;8.564;2023-07-31T06:08:48;16.90;99.90
15231;DHT22;32569;51.762;8.564;2023-07-31T06:11:15;17.00;99.90
15231;DHT22;32569;51.762;8.564;2023-07-31T06:13:42;17.00;99.90
15231;DHT22;32569;51.762;8.564;2023-07-31T06:16:17;17.00;99.90
15231;DHT22;32569;51.762;8.564;2023-07-31T06:18:44;17.00;99.90
15231;DHT22;32569;51.762;8.564;2023-07-31T06:21:11;17.00;99.90
15231;DHT22;32569;51.762;8.564;2023-07-31T06:23:37;17.00;99.90
15231;DHT22;32569;51.762;8.564;2023-07-31T06:26:04;16.90;99.90
15231;DHT22;32569;51.762;8.564;2023-07-31T06:28:32;17.00;99.90
15231;DHT22;32569;51.762;8.564;2023-07-31T06:30:58;17.00;99.90
15231;DHT22;32569;51.762;8.564;2023-07-31T06:33:27;17.10;99.90
15231;DHT22;32569;51.762;8.564;2023-07-31T06:35:54;17.10;99.90
15231;DHT22;32569;51.762;8.564;2023-07-31T06:38:23;17.10;99.90
15231;DHT22;32569;51.762;8.564;2023-07-31T06:40:50;17.20;99.90
15231;DHT22;32569;51.762;8.564;2023-07-31T06:43:17;17.20;99.90
15231;DHT22;32569;51.762;8.564;2023-07-31T06:45:44;17.20;99.90
15231;DHT22;32569;51.762;8.564;2023-07-31T06:48:11;17.20;99.90
15231;DHT22;32569;51.762;8.564;2023-07-31T06:50:39;17.20;99.90
15231;DHT22;32569;51.762;8.564;2023-07-31T06:53:06;17.20;99.90
15231;DHT22;32569;51.762;8.564;2023-07-31T06:55:33;17.20;99.90
15231;DHT22;32569;51.762;8.564;2023-07-31T06:57:59;17.20;99.90
15231;DHT22;32569;51.762;8.564;2023-07-31T07:00:27;17.30;99.90
15231;DHT22;32569;51.762;8.564;2023-07-31T07:02:54;17.10;99.90
15231;DHT22;32569;51.762;8.564;2023-07-31T07:05:21;17.10;99.90
15231;DHT22;32569;51.762;8.564;2023-07-31T07:07:49;17.10;99.90
15231;DHT22;32569;51.762;8.564;2023-07-31T07:10:16;17.10;99.90
15231;DHT22;32569;51.762;8.564;2023-07-31T07:12:42;17.10;99.90
15231;DHT22;32569;51.762;8.564;2023-07-31T07:15:09;17.10;99.90
15231;DHT22;32569;51.762;8.564;2023-07-31T07:17:36;17.10;99.90
15231;DHT22;32569;51.762;8.564;2023-07-31T07:20:04;17.10;99.90
15231;DHT22;32569;51.762;8.564;2023-07-31T07:22:30;17.10;99.90
15231;DHT22;32569;51.762;8.564;2023-07-31T07:24:58;17.20;99.90
15231;DHT22;32569;51.762;8.564;2023-07-31T07:27:25;17.10;99.90
15231;DHT22;32569;51.762;8.564;2023-07-31T07:29:52;17.20;99.90
15231;DHT22;32569;51.762;8.564;2023-07-31T07:32:21;17.20;99.90
15231;DHT22;32569;51.762;8.564;2023-07-31T07:34:48;17.10;99.90
15231;DHT22;32569;51.762;8.564;2023-07-31T07:37:15;17.10;99.90
15231;DHT22;32569;51.762;8.564;2023-07-31T07:39:41;17.10;99.90
15231;DHT22;32569;51.762;8.564;2023-07-31T07:42:10;17.10;99.90
15231;DHT22;32569;51.762;8.564;2023-07-31T07:44:36;17.10;99.90
15231;DHT22;32569;51.762;8.564;2023-07-31T07:47:04;17.00;99.90
15231;DHT22;32569;51.762;8.564;2023-07-31T07:49:31;17.00;99.90
15231;DHT22;32569;51.762;8.564;2023-07-31T07:51:58;17.00;99.90
15231;DHT22;32569;51.762;8.564;2023-07-31T07:54:24;17.00;99.90
15231;DHT22;32569;51.762;8.564;2023-07-31T07:56:51;16.90;99.90
15231;DHT22;32569;51.762;8.564;2023-07-31T07:59:19;16.90;99.90
15231;DHT22;32569;51.762;8.564;2023-07-31T08:01:46;16.90;99.90
15231;DHT22;32569;51.762;8.564;2023-07-31T08:04:13;16.90;99.90
15231;DHT22;32569;51.762;8.564;2023-07-31T08:06:40;16.80;99.90
15231;DHT22;32569;51.762;8.564;2023-07-31T08:09:06;16.80;99.90
15231;DHT22;32569;51.762;8.564;2023-07-31T08:11:34;16.80;99.90
15231;DHT22;32569;51.762;8.564;2023-07-31T08:14:01;17.00;99.90
15231;DHT22;32569;51.762;8.564;2023-07-31T08:16:29;17.00;99.90
15231;DHT22;32569;51.762;8.564;2023-07-31T08:18:56;17.10;99.90
15231;DHT22;32569;51.762;8.564;2023-07-31T08:21:23;17.20;99.90
15231;DHT22;32569;51.762;8.564;2023-07-31T08:23:49;17.30;99.90
15231;DHT22;32569;51.762;8.564;2023-07-31T08:26:17;17.40;99.90
15231;DHT22;32569;51.762;8.564;2023-07-31T08:28:44;17.40;99.90
15231;DHT22;32569;51.762;8.564;2023-07-31T08:31:11;17.50;99.90
15231;DHT22;32569;51.762;8.564;2023-07-31T08:33:40;17.60;99.90
15231;DHT22;32569;51.762;8.564;2023-07-31T08:36:07;17.70;99.90
15231;DHT22;32569;51.762;8.564;2023-07-31T08:38:34;17.60;99.90
15231;DHT22;32569;51.762;8.564;2023-07-31T08:41:03;17.50;99.90
15231;DHT22;32569;51.762;8.564;2023-07-31T08:43:30;17.50;99.90
15231;DHT22;32569;51.762;8.564;2023-07-31T08:45:58;17.60;99.90
15231;DHT22;32569;51.762;8.564;2023-07-31T08:48:25;17.60;99.90
15231;DHT22;32569;51.762;8.564;2023-07-31T08:50:53;17.50;99.90
15231;DHT22;32569;51.762;8.564;2023-07-31T08:53:20;17.50;99.90
15231;DHT22;32569;51.762;8.564;2023-07-31T08:55:48;17.40;99.90
15231;DHT22;32569;51.762;8.564;2023-07-31T08:58:17;17.40;99.90
15231;DHT22;32569;51.762;8.564;2023-07-31T09:00:46;17.40;99.90
15231;DHT22;32569;51.762;8.564;2023-07-31T09:03:14;17.40;99.90
15231;DHT22;32569;51.762;8.564;2023-07-31T09:05:42;17.40;99.90
15231;DHT22;32569;51.762;8.564;2023-07-31T09:08:12;17.40;99.90
15231;DHT22;32569;51.762;8.564;2023-07-31T09:10:43;17.40;99.90
15231;DHT22;32569;51.762;8.564;2023-07-31T09:13:11;17.50;99.90
15231;DHT22;32569;51.762;8.564;2023-07-31T09:15:39;17.50;99.90
15231;DHT22;32569;51.762;8.564;2023-07-31T09:18:09;17.50;99.90
15231;DHT22;32569;51.762;8.564;2023-07-31T09:20:36;17.70;99.90
15231;DHT22;32569;51.762;8.564;2023-07-31T09:23:08;17.80;99.90
15231;DHT22;32569;51.762;8.564;2023-07-31T09:25:38;17.80;99.90
15231;DHT22;32569;51.762;8.564;2023-07-31T09:28:06;17.80;99.90
15231;DHT22;32569;51.762;8.564;2023-07-31T09:30:45;17.80;99.90
15231;DHT22;32569;51.762;8.564;2023-07-31T09:33:13;17.90;99.90
15231;DHT22;32569;51.762;8.564;2023-07-31T09:35:40;18.00;99.90
15231;DHT22;32569;51.762;8.564;2023-07-31T09:38:09;18.10;99.90
15231;DHT22;32569;51.762;8.564;2023-07-31T09:40:38;18.20;99.90
15231;DHT22;32569;51.762;8.564;2023-07-31T09:43:07;18.30;99.90
15231;DHT22;32569;51.762;8.564;2023-07-31T09:45:35;18.40;99.90
15231;DHT22;32569;51.762;8.564;2023-07-31T09:48:03;18.50;99.90
15231;DHT22;32569;51.762;8.564;2023-07-31T09:50:30;18.50;99.90
15231;DHT22;32569;51.762;8.564;2023-07-31T09:52:56;18.70;99.90
15231;DHT22;32569;51.762;8.564;2023-07-31T09:55:24;18.80;99.90
15231;DHT22;32569;51.762;8.564;2023-07-31T09:57:52;18.90;99.90
15231;DHT22;32569;51.762;8.564;2023-07-31T10:00:21;19.00;99.90
15231;DHT22;32569;51.762;8.564;2023-07-31T10:02:51;19.00;99.90
15231;DHT22;32569;51.762;8.564;2023-07-31T10:05:19;19.00;99.90
15231;DHT22;32569;51.762;8.564;2023-07-31T10:07:53;19.00;99.90
15231;DHT22;32569;51.762;8.564;2023-07-31T10:10:22;19.00;99.90
15231;DHT22;32569;51.762;8.564;2023-07-31T10:12:49;19.10;99.90
15231;DHT22;32569;51.762;8.564;2023-07-31T10:15:17;19.10;99.90
15231;DHT22;32569;51.762;8.564;2023-07-31T10:17:47;19.10;99.90
15231;DHT22;32569;51.762;8.564;2023-07-31T10:20:14;19.00;99.90
15231;DHT22;32569;51.762;8.564;2023-07-31T10:22:43;19.00;99.90
15231;DHT22;32569;51.762;8.564;2023-07-31T10:25:11;19.10;99.90
15231;DHT22;32569;51.762;8.564;2023-07-31T10:27:39;19.00;99.90
15231;DHT22;32569;51.762;8.564;2023-07-31T10:30:08;19.00;99.90
15231;DHT22;32569;51.762;8.564;2023-07-31T10:32:38;18.90;99.90
15231;DHT22;32569;51.762;8.564;2023-07-31T10:35:07;18.90;99.90
15231;DHT22;32569;51.762;8.564;2023-07-31T10:37:37;18.90;99.90
15231;DHT22;32569;51.762;8.564;2023-07-31T10:40:06;18.80;99.90
15231;DHT22;32569;51.762;8.564;2023-07-31T10:42:34;18.60;99.90
15231;DHT22;32569;51.762;8.564;2023-07-31T10:45:03;18.60;99.90
15231;DHT22;32569;51.762;8.564;2023-07-31T10:47:31;18.50;99.90
15231;DHT22;32569;51.762;8.564;2023-07-31T10:50:17;18.30;99.90
15231;DHT22;32569;51.762;8.564;2023-07-31T10:52:46;18.30;99.90
15231;DHT22;32569;51.762;8.564;2023-07-31T10:55:30;18.30;99.90
15231;DHT22;32569;51.762;8.564;2023-07-31T10:57:58;18.30;99.90
15231;DHT22;32569;51.762;8.564;2023-07-31T11:00:26;18.50;99.90
15231;DHT22;32569;51.762;8.564;2023-07-31T11:03:00;18.60;99.90
15231;DHT22;32569;51.762;8.564;2023-07-31T11:05:49;18.80;99.90
15231;DHT22;32569;51.762;8.564;2023-07-31T11:08:18;18.90;99.90
15231;DHT22;32569;51.762;8.564;2023-07-31T11:10:47;18.90;99.90
15231;DHT22;32569;51.762;8.564;2023-07-31T11:13:14;18.90;99.90
15231;DHT22;32569;51.762;8.564;2023-07-31T11:15:41;18.90;99.90
15231;DHT22;32569;51.762;8.564;2023-07-31T11:18:07;19.00;99.90
15231;DHT22;32569;51.762;8.564;2023-07-31T11:20:37;18.90;99.90
15231;DHT22;32569;51.762;8.564;2023-07-31T11:23:07;18.90;99.90
15231;DHT22;32569;51.762;8.564;2023-07-31T11:25:35;18.90;99.90
15231;DHT22;32569;51.762;8.564;2023-07-31T11:28:04;19.10;99.90
15231;DHT22;32569;51.762;8.564;2023-07-31T11:30:30;19.00;99.90
15231;DHT22;32569;51.762;8.564;2023-07-31T11:32:57;19.20;99.90
15231;DHT22;32569;51.762;8.564;2023-07-31T11:35:24;19.20;99.90
15231;DHT22;32569;51.762;8.564;2023-07-31T11:37:50;19.30;99.90
15231;DHT22;32569;51.762;8.564;2023-07-31T11:40:19;19.10;99.90
15231;DHT22;32569;51.762;8.564;2023-07-31T11:42:46;19.20;99.90
15231;DHT22;32569;51.762;8.564;2023-07-31T11:45:13;19.20;99.90
15231;DHT22;32569;51.762;8.564;2023-07-31T11:47:39;19.20;99.90
15231;DHT22;32569;51.762;8.564;2023-07-31T11:50:10;19.20;99.90
15231;DHT22;32569;51.762;8.564;2023-07-31T11:52:41;19.20;99.90
15231;DHT22;32569;51.762;8.564;2023-07-31T11:55:09;19.30;99.90
15231;DHT22;32569;51.762;8.564;2023-07-31T11:57:40;19.30;99.90
15231;DHT22;32569;51.762;8.564;2023-07-31T12:00:09;19.20;99.90
15231;DHT22;32569;51.762;8.564;2023-07-31T12:02:38;19.10;99.90
15231;DHT22;32569;51.762;8.564;2023-07-31T12:05:06;19.00;99.90
15231;DHT22;32569;51.762;8.564;2023-07-31T12:07:46;19.00;99.90
15231;DHT22;32569;51.762;8.564;2023-07-31T12:10:23;18.90;99.90
15231;DHT22;32569;51.762;8.564;2023-07-31T12:12:58;18.80;99.90
15231;DHT22;32569;51.762;8.564;2023-07-31T12:15:30;18.80;99.90
15231;DHT22;32569;51.762;8.564;2023-07-31T12:17:57;18.90;99.90
15231;DHT22;32569;51.762;8.564;2023-07-31T12:20:24;19.00;99.90
15231;DHT22;32569;51.762;8.564;2023-07-31T12:22:51;19.20;99.90
15231;DHT22;32569;51.762;8.564;2023-07-31T12:25:17;19.20;99.90
15231;DHT22;32569;51.762;8.564;2023-07-31T12:27:45;19.10;99.90
15231;DHT22;32569;51.762;8.564;2023-07-31T12:33:06;19.00;99.90
15231;DHT22;32569;51.762;8.564;2023-07-31T12:35:42;19.10;99.90
15231;DHT22;32569;51.762;8.564;2023-07-31T12:38:10;19.10;99.90
15231;DHT22;32569;51.762;8.564;2023-07-31T12:40:38;19.10;99.90
15231;DHT22;32569;51.762;8.564;2023-07-31T12:43:04;19.10;99.90
15231;DHT22;32569;51.762;8.564;2023-07-31T12:45:31;19.10;99.90
15231;DHT22;32569;51.762;8.564;2023-07-31T12:47:58;19.00;99.90
15231;DHT22;32569;51.762;8.564;2023-07-31T12:50:27;19.00;99.90
15231;DHT22;32569;51.762;8.564;2023-07-31T12:52:53;18.90;99.90
15231;DHT22;32569;51.762;8.564;2023-07-31T12:55:21;18.80;99.90
15231;DHT22;32569;51.762;8.564;2023-07-31T12:57:47;18.70;99.90
15231;DHT22;32569;51.762;8.564;2023-07-31T13:00:14;18.70;99.90
15231;DHT22;32569;51.762;8.564;2023-07-31T13:02:41;18.70;99.90
15231;DHT22;32569;51.762;8.564;2023-07-31T13:05:08;18.70;99.90
15231;DHT22;32569;51.762;8.564;2023-07-31T13:07:36;18.70;99.90
15231;DHT22;32569;51.762;8.564;2023-07-31T13:10:04;18.90;99.90
15231;DHT22;32569;51.762;8.564;2023-07-31T13:12:31;19.00;99.90
15231;DHT22;32569;51.762;8.564;2023-07-31T13:14:58;19.10;99.90
15231;DHT22;32569;51.762;8.564;2023-07-31T13:17:25;19.10;99.90
15231;DHT22;32569;51.762;8.564;2023-07-31T13:19:52;19.20;99.90
15231;DHT22;32569;51.762;8.564;2023-07-31T13:22:18;19.40;99.90
15231;DHT22;32569;51.762;8.564;2023-07-31T13:24:46;19.60;99.90
15231;DHT22;32569;51.762;8.564;2023-07-31T13:27:13;19.60;99.90
15231;DHT22;32569;51.762;8.564;2023-07-31T13:29:42;19.80;99.90
15231;DHT22;32569;51.762;8.564;2023-07-31T13:32:08;19.90;99.90
15231;DHT22;32569;51.762;8.564;2023-07-31T13:34:35;20.00;99.90
15231;DHT22;32569;51.762;8.564;2023-07-31T13:37:02;20.00;99.90
15231;DHT22;32569;51.762;8.564;2023-07-31T13:39:31;20.10;99.90
15231;DHT22;32569;51.762;8.564;2023-07-31T13:41:59;20.10;99.90
15231;DHT22;32569;51.762;8.564;2023-07-31T13:44:26;20.10;99.90
15231;DHT22;32569;51.762;8.564;2023-07-31T13:46:53;20.10;99.90
15231;DHT22;32569;51.762;8.564;2023-07-31T13:49:19;20.10;99.90
15231;DHT22;32569;51.762;8.564;2023-07-31T13:51:46;20.10;99.90
15231;DHT22;32569;51.762;8.564;2023-07-31T13:54:13;20.10;99.90
15231;DHT22;32569;51.762;8.564;2023-07-31T13:56:41;20.10;99.90
15231;DHT22;32569;51.762;8.564;2023-07-31T13:59:09;20.10;99.90
15231;DHT22;32569;51.762;8.564;2023-07-31T14:01:36;19.90;99.90
15231;DHT22;32569;51.762;8.564;2023-07-31T14:04:03;19.90;99.90
15231;DHT22;32569;51.762;8.564;2023-07-31T14:06:30;19.80;99.90
15231;DHT22;32569;51.762;8.564;2023-07-31T14:08:56;19.80;99.90
15231;DHT22;32569;51.762;8.564;2023-07-31T14:11:23;19.70;99.90
15231;DHT22;32569;51.762;8.564;2023-07-31T14:13:50;19.60;99.90
15231;DHT22;32569;51.762;8.564;2023-07-31T14:16:18;19.60;99.90
15231;DHT22;32569;51.762;8.564;2023-07-31T14:18:45;19.50;99.90
15231;DHT22;32569;51.762;8.564;2023-07-31T14:21:12;19.40;99.90
15231;DHT22;32569;51.762;8.564;2023-07-31T14:23:39;19.40;99.90
15231;DHT22;32569;51.762;8.564;2023-07-31T14:26:05;19.20;99.90
15231;DHT22;32569;51.762;8.564;2023-07-31T14:28:32;19.10;99.90
15231;DHT22;32569;51.762;8.564;2023-07-31T14:30:59;19.10;99.90
15231;DHT22;32569;51.762;8.564;2023-07-31T14:33:27;19.10;99.90
15231;DHT22;32569;51.762;8.564;2023-07-31T14:35:54;19.20;99.90
15231;DHT22;32569;51.762;8.564;2023-07-31T14:38:20;19.20;99.90
15231;DHT22;32569;51.762;8.564;2023-07-31T14:40:47;19.30;99.90
15231;DHT22;32569;51.762;8.564;2023-07-31T14:43:15;19.50;99.90
15231;DHT22;32569;51.762;8.564;2023-07-31T14:45:44;19.50;99.90
15231;DHT22;32569;51.762;8.564;2023-07-31T14:48:11;19.60;99.90
15231;DHT22;32569;51.762;8.564;2023-07-31T14:50:39;19.60;99.90
15231;DHT22;32569;51.762;8.564;2023-07-31T14:53:06;19.50;99.90
15231;DHT22;32569;51.762;8.564;2023-07-31T14:55:33;19.60;99.90
15231;DHT22;32569;51.762;8.564;2023-07-31T14:57:59;19.70;99.90
15231;DHT22;32569;51.762;8.564;2023-07-31T15:00:26;19.80;99.90
15231;DHT22;32569;51.762;8.564;2023-07-31T15:02:53;19.80;99.90
15231;DHT22;32569;51.762;8.564;2023-07-31T15:05:20;19.80;99.90
15231;DHT22;32569;51.762;8.564;2023-07-31T15:07:48;19.80;99.90
15231;DHT22;32569;51.762;8.564;2023-07-31T15:10:15;19.80;99.90
15231;DHT22;32569;51.762;8.564;2023-07-31T15:12:42;19.80;99.90
15231;DHT22;32569;51.762;8.564;2023-07-31T15:15:09;19.70;99.90
15231;DHT22;32569;51.762;8.564;2023-07-31T15:17:35;19.80;99.90
15231;DHT22;32569;51.762;8.564;2023-07-31T15:20:03;19.70;99.90
15231;DHT22;32569;51.762;8.564;2023-07-31T15:22:30;19.90;99.90
15231;DHT22;32569;51.762;8.564;2023-07-31T15:24:59;19.80;99.90
15231;DHT22;32569;51.762;8.564;2023-07-31T15:27:26;19.90;99.90
15231;DHT22;32569;51.762;8.564;2023-07-31T15:29:52;20.00;99.90
15231;DHT22;32569;51.762;8.564;2023-07-31T15:32:19;20.00;99.90
15231;DHT22;32569;51.762;8.564;2023-07-31T15:34:47;20.00;99.90
15231;DHT22;32569;51.762;8.564;2023-07-31T15:37:14;20.00;99.90